Arapahoe, Colorado
Current Conditions -  °F | °C
As of 7:53 PM on Monday 20 Oct 2014 (Local Time) from KITR Reporting Station
Clear Clear  
Wind Chill: 57°   Ceiling: Unl
Heat Index: 57°   Visibility: 10mi
Dew Point: 40°   Wind: 12mph
Humidity: 53%   Direction: 170°S
Pressure: 30.11"   Gusts: NA
Location:  38.85°N, 102.18°W
Report Text: KITR 210153Z AUTO 17010KT 10SM CLR 14/04 A3011 RMK AO2 SLP179 T01390044
Loading
Personal Weather Stations






























Interactive Weather Map
Tropical Storm Tracking
New forecast layout! Learn more

10-Day Weather Forecast

Advertisements
Track Severe Weather on mobile